createdAt,value
2022-09-07T00:00:53.689Z,14.60
2022-09-07T00:03:22.096Z,14.57
2022-09-07T00:05:51.201Z,14.52
2022-09-07T00:08:22.100Z,14.50
2022-09-07T00:10:56.929Z,14.50
2022-09-07T00:13:26.843Z,14.49
2022-09-07T00:15:54.450Z,14.47
2022-09-07T00:18:21.649Z,14.44
2022-09-07T00:21:03.781Z,14.43
2022-09-07T00:23:32.761Z,14.40
2022-09-07T00:26:12.896Z,14.37
2022-09-07T00:28:40.905Z,14.35
2022-09-07T00:31:15.348Z,14.32
2022-09-07T00:33:43.964Z,14.25
2022-09-07T00:36:11.216Z,14.20
2022-09-07T00:38:38.685Z,14.16
2022-09-07T00:41:06.853Z,14.14
2022-09-07T00:43:38.514Z,14.10
2022-09-07T00:46:11.963Z,14.08
2022-09-07T00:49:13.060Z,14.05
2022-09-07T00:51:48.286Z,14.02
2022-09-07T00:54:21.582Z,13.99
2022-09-07T00:56:52.451Z,13.97
2022-09-07T00:59:28.656Z,13.94
2022-09-07T01:01:56.353Z,13.89
2022-09-07T01:04:25.549Z,13.88
2022-09-07T01:06:55.381Z,13.89
2022-09-07T01:09:26.808Z,13.90
2022-09-07T01:11:57.333Z,13.88
2022-09-07T01:14:32.918Z,13.84
2022-09-07T01:17:25.762Z,13.82
2022-09-07T01:20:01.621Z,13.80
2022-09-07T01:23:21.482Z,13.78
2022-09-07T01:26:21.137Z,13.78
2022-09-07T01:28:58.072Z,13.75
2022-09-07T01:32:01.673Z,13.72
2022-09-07T01:34:29.052Z,13.67
2022-09-07T01:37:11.235Z,13.63
2022-09-07T01:40:02.096Z,13.54
2022-09-07T01:42:37.879Z,13.46
2022-09-07T01:45:12.318Z,13.39
2022-09-07T01:47:54.941Z,13.41
2022-09-07T01:50:56.498Z,13.37
2022-09-07T01:53:39.187Z,13.35
2022-09-07T01:56:47.806Z,13.34
2022-09-07T01:59:51.109Z,13.31
2022-09-07T02:02:26.400Z,13.30
2022-09-07T02:05:06.605Z,13.30
2022-09-07T02:07:41.426Z,13.31
2022-09-07T02:10:26.454Z,13.31
2022-09-07T02:13:14.329Z,13.29
2022-09-07T02:15:59.908Z,13.24
2022-09-07T02:18:34.945Z,13.23
2022-09-07T02:21:04.554Z,13.21
2022-09-07T02:23:47.267Z,13.21
2022-09-07T02:26:19.027Z,13.15
2022-09-07T02:28:47.142Z,13.12
2022-09-07T02:31:14.695Z,13.08
2022-09-07T02:33:42.554Z,13.06
2022-09-07T02:36:12.950Z,13.06
2022-09-07T02:38:40.184Z,13.05
2022-09-07T02:41:38.784Z,13.02
2022-09-07T02:44:20.073Z,12.98
2022-09-07T02:47:33.098Z,12.96
2022-09-07T02:50:39.959Z,12.94
2022-09-07T02:53:43.709Z,12.94
2022-09-07T02:56:52.515Z,12.92
2022-09-07T02:59:46.904Z,12.87
2022-09-07T03:02:24.101Z,12.87
2022-09-07T03:04:55.422Z,12.86
2022-09-07T03:07:35.626Z,12.86
2022-09-07T03:10:06.105Z,12.88
2022-09-07T03:12:48.816Z,12.88
2022-09-07T03:15:23.947Z,12.89
2022-09-07T03:17:52.293Z,12.87
2022-09-07T03:20:20.625Z,12.86
2022-09-07T03:22:50.057Z,12.84
2022-09-07T03:25:18.710Z,12.83
2022-09-07T03:27:45.965Z,12.82
2022-09-07T03:30:14.129Z,12.80
2022-09-07T03:32:41.490Z,12.77
2022-09-07T03:35:14.472Z,12.70
2022-09-07T03:37:41.816Z,12.66
2022-09-07T03:40:12.333Z,12.65
2022-09-07T03:42:40.281Z,12.61
2022-09-07T03:45:09.285Z,12.58
2022-09-07T03:47:37.689Z,12.57
2022-09-07T03:50:06.615Z,12.59
2022-09-07T03:52:35.084Z,12.58
2022-09-07T03:55:02.512Z,12.58
2022-09-07T03:57:29.775Z,12.57
2022-09-07T03:59:56.918Z,12.60
2022-09-07T04:02:24.313Z,12.62
2022-09-07T04:04:51.638Z,12.63
2022-09-07T04:07:19.014Z,12.61
2022-09-07T04:09:46.139Z,12.63
2022-09-07T04:12:13.897Z,12.61
2022-09-07T04:14:41.462Z,12.62
2022-09-07T04:17:08.801Z,12.63
2022-09-07T04:19:36.213Z,12.66
2022-09-07T04:22:03.426Z,12.69
2022-09-07T04:24:30.606Z,12.74
2022-09-07T04:26:57.758Z,12.79
2022-09-07T04:29:24.942Z,12.80
2022-09-07T04:31:52.172Z,12.78
2022-09-07T04:34:20.141Z,12.78
2022-09-07T04:36:47.277Z,12.76
2022-09-07T04:39:14.413Z,12.78
2022-09-07T04:41:41.645Z,12.77
2022-09-07T04:44:13.622Z,12.82
2022-09-07T04:46:43.629Z,12.89
2022-09-07T04:49:11.544Z,12.93
2022-09-07T04:51:42.129Z,12.99
2022-09-07T04:54:10.510Z,12.98
2022-09-07T04:56:38.522Z,12.98
2022-09-07T04:59:05.941Z,13.01
2022-09-07T05:01:33.161Z,13.06
2022-09-07T05:04:01.989Z,13.08
2022-09-07T05:06:29.716Z,13.09
2022-09-07T05:08:58.822Z,13.15
2022-09-07T05:11:29.370Z,13.23
2022-09-07T05:13:59.454Z,13.30
2022-09-07T05:16:28.240Z,13.36
2022-09-07T05:19:01.839Z,13.37
2022-09-07T05:21:32.511Z,13.44
2022-09-07T05:24:01.314Z,13.48
2022-09-07T05:26:32.299Z,13.48
2022-09-07T05:31:51.414Z,13.64
2022-09-07T05:34:34.532Z,13.72
2022-09-07T05:37:02.346Z,13.79
2022-09-07T05:39:30.428Z,13.86
2022-09-07T05:41:57.580Z,13.94
2022-09-07T05:47:12.639Z,14.11
2022-09-07T05:49:40.007Z,14.21
2022-09-07T05:52:07.644Z,14.30
2022-09-07T05:54:35.065Z,14.41
2022-09-07T05:57:03.086Z,14.49
2022-09-07T05:59:30.653Z,14.57
2022-09-07T06:01:58.051Z,14.65
2022-09-07T06:04:25.473Z,14.74
2022-09-07T06:07:20.146Z,14.77
2022-09-07T06:12:28.076Z,14.85
2022-09-07T06:14:55.194Z,14.88
2022-09-07T06:17:22.534Z,14.96
2022-09-07T06:19:49.692Z,15.05
2022-09-07T06:22:16.998Z,15.12
2022-09-07T06:24:44.246Z,15.17
2022-09-07T06:27:11.714Z,15.21
2022-09-07T06:29:38.933Z,15.25
2022-09-07T06:34:54.317Z,15.26
2022-09-07T06:37:21.438Z,15.27
2022-09-07T06:39:49.029Z,15.33
2022-09-07T06:42:16.418Z,15.42
2022-09-07T06:44:44.061Z,15.54
2022-09-07T06:47:11.641Z,15.69
2022-09-07T06:49:38.784Z,15.79
2022-09-07T06:52:06.227Z,15.88
2022-09-07T06:57:21.461Z,16.09
2022-09-07T06:59:48.990Z,16.16
2022-09-07T07:02:16.452Z,16.25
2022-09-07T07:04:43.887Z,16.33
2022-09-07T07:07:13.441Z,16.38
2022-09-07T07:09:41.713Z,16.42
2022-09-07T07:12:10.812Z,16.43
2022-09-07T07:14:44.045Z,16.44
2022-09-07T07:17:13.485Z,16.47
2022-09-07T07:19:40.585Z,16.47
2022-09-07T07:22:29.505Z,16.48
2022-09-07T07:24:55.756Z,16.52
2022-09-07T07:27:23.193Z,16.59
2022-09-07T07:29:51.943Z,16.68
2022-09-07T07:32:19.347Z,16.77
2022-09-07T07:34:46.572Z,16.88
2022-09-07T07:37:15.382Z,16.95
2022-09-07T07:42:30.771Z,17.04
2022-09-07T07:47:50.850Z,17.22
2022-09-07T07:50:34.377Z,17.31
2022-09-07T07:55:49.044Z,17.53
2022-09-07T07:58:16.585Z,17.66
2022-09-07T08:00:54.436Z,17.79
2022-09-07T08:03:24.823Z,17.90
2022-09-07T08:05:53.057Z,18.04
2022-09-07T08:08:21.566Z,18.17
2022-09-07T08:10:49.961Z,18.32
2022-09-07T08:13:17.892Z,18.40
2022-09-07T08:15:45.836Z,18.51
2022-09-07T08:18:15.160Z,18.62
2022-09-07T08:20:43.269Z,18.67
2022-09-07T08:23:11.170Z,18.80
2022-09-07T08:25:38.415Z,18.87
2022-09-07T08:28:05.610Z,19.00
2022-09-07T08:30:33.096Z,19.09
2022-09-07T08:33:00.368Z,19.18
2022-09-07T08:35:27.354Z,19.28
2022-09-07T08:37:54.460Z,19.36
2022-09-07T08:40:21.492Z,19.40
2022-09-07T08:43:11.593Z,19.48
2022-09-07T08:46:38.527Z,19.57
2022-09-07T08:49:18.570Z,19.66
2022-09-07T08:52:15.695Z,19.71
2022-09-07T08:54:49.717Z,19.70
2022-09-07T08:57:26.901Z,19.71
2022-09-07T09:00:13.418Z,19.67
2022-09-07T09:02:44.344Z,19.69
2022-09-07T09:05:58.495Z,19.69
2022-09-07T09:08:57.643Z,19.77
2022-09-07T09:12:04.281Z,19.85
2022-09-07T09:14:54.252Z,19.91
2022-09-07T09:17:46.317Z,19.96
2022-09-07T09:20:54.983Z,20.02
2022-09-07T09:23:30.541Z,20.07
2022-09-07T09:26:23.620Z,20.06
2022-09-07T09:28:51.098Z,19.97
2022-09-07T09:31:22.066Z,19.98
2022-09-07T09:34:10.727Z,20.06
2022-09-07T09:36:51.036Z,20.23
2022-09-07T09:39:37.926Z,20.37
2022-09-07T09:42:11.226Z,20.52
2022-09-07T09:44:39.142Z,20.64
2022-09-07T09:49:55.034Z,20.91
2022-09-07T09:52:33.952Z,21.00
2022-09-07T10:06:25.655Z,21.25
2022-09-07T10:08:59.658Z,21.36
2022-09-07T10:12:08.546Z,21.45
2022-09-07T10:14:43.719Z,21.57
2022-09-07T10:17:21.239Z,21.65
2022-09-07T10:19:49.158Z,21.73
2022-09-07T10:22:37.194Z,21.76
2022-09-07T10:25:31.824Z,21.78
2022-09-07T10:28:10.950Z,21.75
2022-09-07T10:30:58.848Z,21.83
2022-09-07T10:37:08.600Z,22.01
2022-09-07T10:40:00.566Z,22.09
2022-09-07T10:42:35.157Z,22.16
2022-09-07T10:45:28.246Z,22.18
2022-09-07T10:48:11.038Z,22.20
2022-09-07T10:50:53.261Z,22.20
2022-09-07T10:53:43.099Z,22.20
2022-09-07T10:56:31.937Z,22.26
2022-09-07T11:03:24.962Z,22.52
2022-09-07T11:05:56.281Z,22.62
2022-09-07T11:09:15.734Z,22.72
2022-09-07T11:14:21.538Z,22.97
2022-09-07T11:16:57.855Z,22.98
2022-09-07T11:19:38.846Z,23.00
2022-09-07T11:22:22.345Z,22.92
2022-09-07T11:28:19.116Z,22.75
2022-09-07T11:30:59.205Z,22.58
2022-09-07T11:33:40.469Z,22.43
2022-09-07T11:36:15.309Z,22.37
2022-09-07T11:38:53.898Z,22.36
2022-09-07T11:41:29.315Z,22.22
2022-09-07T11:44:06.178Z,22.13
2022-09-07T11:47:21.386Z,22.11
2022-09-07T11:49:59.027Z,22.10
2022-09-07T11:52:42.721Z,22.06
2022-09-07T11:55:21.248Z,22.09
2022-09-07T11:58:26.578Z,22.08
2022-09-07T12:01:08.734Z,22.06
2022-09-07T12:04:31.727Z,22.03
2022-09-07T12:07:29.563Z,22.21
2022-09-07T12:10:27.765Z,22.43
2022-09-07T12:13:46.479Z,22.62
2022-09-07T12:16:49.201Z,22.77
2022-09-07T12:19:23.355Z,22.87
2022-09-07T12:21:53.299Z,22.96
2022-09-07T12:24:48.425Z,23.00
2022-09-07T12:27:21.211Z,23.12
2022-09-07T12:29:52.140Z,23.28
2022-09-07T12:32:55.310Z,23.35
2022-09-07T12:35:25.817Z,23.54
2022-09-07T12:37:54.837Z,23.66
2022-09-07T12:40:28.149Z,23.81
2022-09-07T12:43:13.013Z,23.95
2022-09-07T12:45:40.227Z,23.98
2022-09-07T12:49:04.254Z,24.05
2022-09-07T12:54:37.462Z,24.31
2022-09-07T12:57:39.220Z,24.31
2022-09-07T13:00:22.725Z,24.01
2022-09-07T13:09:33.425Z,23.26
2022-09-07T13:15:48.601Z,23.06
2022-09-07T13:18:28.165Z,22.96
2022-09-07T13:21:10.648Z,22.91
2022-09-07T13:23:39.489Z,22.90
2022-09-07T13:26:49.347Z,22.91
2022-09-07T13:29:46.199Z,22.79
2022-09-07T13:35:23.813Z,22.67
2022-09-07T13:37:57.633Z,22.64
2022-09-07T13:40:40.152Z,22.62
2022-09-07T13:43:18.937Z,22.57
2022-09-07T13:45:53.914Z,22.70
2022-09-07T13:48:31.139Z,22.86
2022-09-07T13:51:16.505Z,22.93
2022-09-07T13:53:55.576Z,22.87
2022-09-07T13:56:38.364Z,22.86
2022-09-07T13:59:23.278Z,22.76
2022-09-07T14:01:51.244Z,22.69
2022-09-07T14:04:36.909Z,22.68
2022-09-07T14:07:12.540Z,22.62
2022-09-07T14:09:39.603Z,22.57
2022-09-07T14:12:16.067Z,22.50
2022-09-07T14:14:43.161Z,22.47
2022-09-07T14:17:14.894Z,22.35
2022-09-07T14:19:45.805Z,22.26
2022-09-07T14:22:17.543Z,22.20
2022-09-07T14:24:53.242Z,22.10
2022-09-07T14:27:40.714Z,22.06
2022-09-07T14:30:25.505Z,21.96
2022-09-07T14:33:00.648Z,21.89
2022-09-07T14:35:33.301Z,21.74
2022-09-07T14:38:14.581Z,21.66
2022-09-07T14:40:42.389Z,21.63
2022-09-07T14:43:33.305Z,21.59
2022-09-07T14:46:24.760Z,21.52
2022-09-07T14:48:58.713Z,21.49
2022-09-07T14:51:36.197Z,21.45
2022-09-07T14:54:07.692Z,21.40
2022-09-07T14:56:38.955Z,21.33
2022-09-07T14:59:32.569Z,21.26
2022-09-07T15:02:18.055Z,21.14
2022-09-07T15:04:47.001Z,21.10
2022-09-07T15:07:40.592Z,21.08
2022-09-07T15:10:23.527Z,21.05
2022-09-07T15:12:57.948Z,21.05
2022-09-07T15:15:40.457Z,21.02
2022-09-07T15:18:51.570Z,20.99
2022-09-07T15:21:19.044Z,20.97
2022-09-07T15:23:54.569Z,20.95
2022-09-07T15:29:14.813Z,20.87
2022-09-07T15:31:49.755Z,20.84
2022-09-07T15:34:24.623Z,20.80
2022-09-07T15:36:53.351Z,20.73
2022-09-07T15:39:27.597Z,20.69
2022-09-07T15:41:55.510Z,20.64
2022-09-07T15:44:26.164Z,20.58
2022-09-07T15:49:46.061Z,20.51
2022-09-07T15:52:17.673Z,20.48
2022-09-07T15:54:44.821Z,20.40
2022-09-07T15:59:59.221Z,20.33
2022-09-07T16:05:13.447Z,20.23
2022-09-07T16:10:31.089Z,20.18
2022-09-07T16:13:01.212Z,20.16
2022-09-07T16:15:31.315Z,20.11
2022-09-07T16:17:58.788Z,20.06
2022-09-07T16:20:31.630Z,19.99
2022-09-07T16:23:15.830Z,19.96
2022-09-07T16:25:57.060Z,19.89
2022-09-07T16:28:26.185Z,19.83
2022-09-07T16:30:53.919Z,19.75
2022-09-07T16:33:21.233Z,19.70
2022-09-07T16:36:03.625Z,19.66
2022-09-07T16:38:47.069Z,19.60
2022-09-07T16:41:30.841Z,19.55
2022-09-07T16:43:58.502Z,19.49
2022-09-07T16:46:30.277Z,19.42
2022-09-07T16:48:57.837Z,19.37
2022-09-07T16:51:25.132Z,19.33
2022-09-07T16:53:56.158Z,19.29
2022-09-07T16:56:25.024Z,19.21
2022-09-07T16:59:01.186Z,19.17
2022-09-07T17:01:32.845Z,19.14
2022-09-07T17:04:01.187Z,19.13
2022-09-07T17:06:30.846Z,19.09
2022-09-07T17:09:01.316Z,19.07
2022-09-07T17:11:34.947Z,19.03
2022-09-07T17:14:04.951Z,19.01
2022-09-07T17:16:36.209Z,18.97
2022-09-07T17:21:54.341Z,18.92
2022-09-07T17:24:21.253Z,18.88
2022-09-07T17:26:48.369Z,18.84
2022-09-07T17:29:15.392Z,18.82
2022-09-07T17:34:30.504Z,18.77
2022-09-07T17:36:58.564Z,18.73
2022-09-07T17:39:25.755Z,18.73
2022-09-07T17:41:53.928Z,18.70
2022-09-07T17:44:22.738Z,18.69
2022-09-07T17:46:50.120Z,18.67
2022-09-07T17:49:17.338Z,18.65
2022-09-07T17:51:45.711Z,18.61
2022-09-07T17:54:16.176Z,18.59
2022-09-07T17:56:44.493Z,18.56
2022-09-07T18:01:59.853Z,18.51
2022-09-07T18:04:28.217Z,18.50
2022-09-07T18:06:56.199Z,18.48
2022-09-07T18:09:23.595Z,18.46
2022-09-07T18:11:51.190Z,18.44
2022-09-07T18:14:19.303Z,18.42
2022-09-07T18:16:49.404Z,18.41
2022-09-07T18:19:18.613Z,18.39
2022-09-07T18:21:47.388Z,18.37
2022-09-07T18:24:22.064Z,18.35
2022-09-07T18:26:52.751Z,18.33
2022-09-07T18:29:29.258Z,18.31
2022-09-07T18:31:59.984Z,18.29
2022-09-07T18:34:28.889Z,18.26
2022-09-07T18:36:57.638Z,18.24
2022-09-07T18:39:26.250Z,18.19
2022-09-07T18:41:54.458Z,18.15
2022-09-07T18:47:16.091Z,18.08
2022-09-07T18:49:48.806Z,18.05
2022-09-07T18:55:03.416Z,18.00
2022-09-07T18:57:30.729Z,17.95
2022-09-07T18:59:57.833Z,17.92
2022-09-07T19:02:25.229Z,17.90
2022-09-07T19:07:39.712Z,17.81
2022-09-07T19:10:08.058Z,17.79
2022-09-07T19:12:35.130Z,17.77
2022-09-07T19:15:03.097Z,17.75
2022-09-07T19:17:31.277Z,17.71
2022-09-07T19:19:58.481Z,17.66
2022-09-07T19:22:27.177Z,17.63
2022-09-07T19:24:54.532Z,17.62
2022-09-07T19:27:21.721Z,17.60
2022-09-07T19:29:49.044Z,17.55
2022-09-07T19:32:17.657Z,17.52
2022-09-07T19:34:45.524Z,17.49
2022-09-07T19:37:13.142Z,17.47
2022-09-07T19:39:40.519Z,17.44
2022-09-07T19:42:08.110Z,17.42
2022-09-07T19:44:35.631Z,17.43
2022-09-07T19:47:02.851Z,17.43
2022-09-07T19:49:30.312Z,17.41
2022-09-07T19:51:57.589Z,17.39
2022-09-07T19:54:24.976Z,17.35
2022-09-07T19:56:52.012Z,17.31
2022-09-07T19:59:19.376Z,17.30
2022-09-07T20:01:49.078Z,17.26
2022-09-07T20:04:22.976Z,17.22
2022-09-07T20:06:51.114Z,17.18
2022-09-07T20:09:19.761Z,17.14
2022-09-07T20:11:47.787Z,17.10
2022-09-07T20:14:16.741Z,17.04
2022-09-07T20:16:44.387Z,16.98
2022-09-07T20:19:13.931Z,16.96
2022-09-07T20:21:41.076Z,16.96
2022-09-07T20:24:11.709Z,16.96
2022-09-07T20:26:39.108Z,16.94
2022-09-07T20:29:26.115Z,16.91
2022-09-07T20:31:54.170Z,16.93
2022-09-07T20:34:21.348Z,16.92
2022-09-07T20:36:50.116Z,16.93
2022-09-07T20:39:17.249Z,16.94
2022-09-07T20:41:44.652Z,16.92
2022-09-07T20:44:12.386Z,16.92
2022-09-07T20:46:39.473Z,16.92
2022-09-07T20:49:07.112Z,16.92
2022-09-07T20:51:34.927Z,16.88
2022-09-07T20:54:02.186Z,16.85
2022-09-07T20:56:29.954Z,16.85
2022-09-07T20:58:59.782Z,16.84
2022-09-07T21:01:28.401Z,16.80
2022-09-07T21:03:58.868Z,16.76
2022-09-07T21:06:27.758Z,16.73
2022-09-07T21:08:59.032Z,16.72
2022-09-07T21:11:33.687Z,16.72
2022-09-07T21:14:08.085Z,16.73
2022-09-07T21:16:35.966Z,16.75
2022-09-07T21:19:06.781Z,16.78
2022-09-07T21:21:39.149Z,16.79
2022-09-07T21:24:21.442Z,16.83
2022-09-07T21:26:50.331Z,16.88
2022-09-07T21:29:22.590Z,16.92
2022-09-07T21:31:52.397Z,16.94
2022-09-07T21:34:19.752Z,16.94
2022-09-07T21:36:47.158Z,16.91
2022-09-07T21:39:15.501Z,16.93
2022-09-07T21:41:44.743Z,16.92
2022-09-07T21:44:14.337Z,16.92
2022-09-07T21:46:42.836Z,16.91
2022-09-07T21:49:10.865Z,16.92
2022-09-07T21:51:38.299Z,16.91
2022-09-07T21:54:06.017Z,16.91
2022-09-07T21:56:33.300Z,16.89
2022-09-07T21:59:02.250Z,16.87
2022-09-07T22:01:31.012Z,16.84
2022-09-07T22:04:02.080Z,16.82
2022-09-07T22:06:31.953Z,16.80
2022-09-07T22:09:00.433Z,16.79
2022-09-07T22:11:28.959Z,16.77
2022-09-07T22:14:02.874Z,16.75
2022-09-07T22:16:33.023Z,16.70
2022-09-07T22:19:00.774Z,16.64
2022-09-07T22:21:29.484Z,16.66
2022-09-07T22:23:59.941Z,16.69
2022-09-07T22:26:30.900Z,16.74
2022-09-07T22:28:58.751Z,16.72
2022-09-07T22:31:29.974Z,16.77
2022-09-07T22:33:59.354Z,16.79
2022-09-07T22:36:33.624Z,16.83
2022-09-07T22:39:05.032Z,16.82
2022-09-07T22:41:34.789Z,16.79
2022-09-07T22:44:02.459Z,16.75
2022-09-07T22:46:33.917Z,16.73
2022-09-07T22:49:01.053Z,16.70
2022-09-07T22:51:28.174Z,16.66
2022-09-07T22:53:56.583Z,16.64
2022-09-07T22:56:27.620Z,16.60
2022-09-07T22:59:01.081Z,16.52
2022-09-07T23:01:31.216Z,16.42
2022-09-07T23:03:59.600Z,16.36
2022-09-07T23:06:39.168Z,16.36
2022-09-07T23:09:15.323Z,16.30
2022-09-07T23:11:43.573Z,16.28
2022-09-07T23:14:21.350Z,16.25
2022-09-07T23:16:48.957Z,16.25
2022-09-07T23:19:19.309Z,16.26
2022-09-07T23:21:47.093Z,16.22
2022-09-07T23:24:17.466Z,16.19
2022-09-07T23:26:46.273Z,16.17
2022-09-07T23:29:15.317Z,16.14
2022-09-07T23:31:45.112Z,16.09
2022-09-07T23:34:12.263Z,16.08
2022-09-07T23:36:39.414Z,16.02
2022-09-07T23:39:06.812Z,16.05
2022-09-07T23:41:33.811Z,16.06
2022-09-07T23:44:01.167Z,16.06
2022-09-07T23:46:28.403Z,16.04
2022-09-07T23:48:55.772Z,15.99
2022-09-07T23:51:24.458Z,16.00
2022-09-07T23:53:52.622Z,15.98
2022-09-07T23:56:21.469Z,15.95
2022-09-07T23:58:48.671Z,15.94
